createdAt,value
2022-08-11T00:01:19.431Z,39.20
2022-08-11T00:03:54.667Z,39.40
2022-08-11T00:06:31.902Z,40.40
2022-08-11T00:08:59.427Z,40.60
2022-08-11T00:11:37.304Z,40.40
2022-08-11T00:14:13.621Z,39.60
2022-08-11T00:16:41.905Z,39.90
2022-08-11T00:19:09.180Z,39.80
2022-08-11T00:22:04.780Z,40.20
2022-08-11T00:24:51.669Z,39.10
2022-08-11T00:27:20.548Z,40.30
2022-08-11T00:29:54.406Z,40.30
2022-08-11T00:32:21.959Z,40.90
2022-08-11T00:34:49.304Z,40.80
2022-08-11T00:37:23.078Z,41.10
2022-08-11T00:39:54.795Z,41.00
2022-08-11T00:42:30.521Z,41.30
2022-08-11T00:45:26.815Z,41.70
2022-08-11T00:48:29.788Z,41.10
2022-08-11T00:51:13.032Z,41.20
2022-08-11T00:54:17.301Z,40.30
2022-08-11T00:57:36.641Z,40.10
2022-08-11T01:00:13.325Z,40.60
2022-08-11T01:03:07.329Z,40.20
2022-08-11T01:05:45.930Z,39.70
2022-08-11T01:09:06.600Z,39.60
2022-08-11T01:12:11.094Z,39.50
2022-08-11T01:15:19.693Z,39.80
2022-08-11T01:18:11.111Z,40.30
2022-08-11T01:20:59.717Z,40.70
2022-08-11T01:23:59.548Z,40.70
2022-08-11T01:26:44.279Z,41.00
2022-08-11T01:29:10.829Z,41.20
2022-08-11T01:32:02.062Z,41.50
2022-08-11T01:35:06.214Z,41.10
2022-08-11T01:37:57.821Z,41.70
2022-08-11T01:40:30.866Z,41.30
2022-08-11T01:43:28.976Z,42.20
2022-08-11T01:46:37.334Z,42.10
2022-08-11T01:50:08.446Z,43.30
2022-08-11T01:52:30.927Z,43.60
2022-08-11T01:55:26.931Z,43.50
2022-08-11T01:58:20.127Z,44.10
2022-08-11T02:01:11.391Z,44.30
2022-08-11T02:03:53.163Z,44.70
2022-08-11T02:06:55.717Z,45.20
2022-08-11T02:09:49.565Z,45.20
2022-08-11T02:12:52.168Z,45.20
2022-08-11T02:15:34.326Z,45.60
2022-08-11T02:18:10.344Z,45.40
2022-08-11T02:21:06.560Z,47.00
2022-08-11T02:24:05.496Z,47.70
2022-08-11T02:26:53.349Z,47.30
2022-08-11T02:29:35.683Z,47.50
2022-08-11T02:32:33.847Z,48.30
2022-08-11T02:35:18.957Z,48.90
2022-08-11T02:38:15.177Z,49.40
2022-08-11T02:41:28.589Z,49.80
2022-08-11T02:44:25.868Z,50.20
2022-08-11T02:47:17.957Z,50.00
2022-08-11T02:50:07.231Z,49.50
2022-08-11T02:52:52.244Z,50.20
2022-08-11T02:55:50.850Z,50.90
2022-08-11T02:58:36.871Z,52.70
2022-08-11T03:01:17.254Z,53.00
2022-08-11T03:04:00.652Z,54.40
2022-08-11T03:06:49.334Z,55.00
2022-08-11T03:09:24.514Z,55.60
2022-08-11T03:12:22.790Z,56.00
2022-08-11T03:15:34.492Z,56.70
2022-08-11T03:18:27.779Z,57.20
2022-08-11T03:21:09.216Z,57.80
2022-08-11T03:23:53.025Z,58.30
2022-08-11T03:26:38.511Z,58.70
2022-08-11T03:29:31.168Z,59.50
2022-08-11T03:32:29.041Z,59.60
2022-08-11T03:34:59.580Z,60.00
2022-08-11T03:38:01.282Z,60.50
2022-08-11T03:40:53.958Z,60.70
2022-08-11T03:43:58.345Z,60.80
2022-08-11T03:47:05.114Z,61.10
2022-08-11T03:49:58.640Z,61.60
2022-08-11T03:52:40.360Z,61.60
2022-08-11T03:55:23.894Z,63.00
2022-08-11T03:58:05.376Z,63.10
2022-08-11T04:01:06.286Z,63.90
2022-08-11T04:03:47.906Z,64.10
2022-08-11T04:06:27.403Z,64.30
2022-08-11T04:09:25.347Z,64.70
2022-08-11T04:12:07.413Z,65.20
2022-08-11T04:15:26.180Z,65.00
2022-08-11T04:18:49.249Z,65.60
2022-08-11T04:21:34.429Z,66.20
2022-08-11T04:24:38.205Z,66.60
2022-08-11T04:27:42.866Z,66.30
2022-08-11T04:30:17.483Z,66.50
2022-08-11T04:32:59.282Z,67.10
2022-08-11T04:36:03.450Z,67.20
2022-08-11T04:38:38.649Z,67.30
2022-08-11T04:41:33.166Z,67.40
2022-08-11T04:44:24.008Z,68.10
2022-08-11T04:48:03.891Z,68.00
2022-08-11T04:51:08.758Z,68.70
2022-08-11T04:54:28.309Z,68.90
2022-08-11T04:57:21.200Z,68.80
2022-08-11T05:00:25.853Z,68.70
2022-08-11T05:03:09.006Z,68.60
2022-08-11T05:05:56.655Z,68.90
2022-08-11T05:08:24.316Z,69.10
2022-08-11T05:11:12.986Z,69.00
2022-08-11T05:14:10.083Z,70.40
2022-08-11T05:17:13.730Z,70.90
2022-08-11T05:20:04.795Z,70.30
2022-08-11T05:22:50.835Z,70.70
2022-08-11T05:26:45.381Z,70.50
2022-08-11T05:28:55.357Z,70.50
2022-08-11T05:31:50.675Z,70.60
2022-08-11T05:34:42.072Z,71.10
2022-08-11T05:37:26.739Z,70.10
2022-08-11T05:40:34.702Z,69.80
2022-08-11T05:43:32.466Z,69.00
2022-08-11T05:46:23.513Z,67.70
2022-08-11T05:49:09.642Z,65.70
2022-08-11T05:52:05.258Z,65.40
2022-08-11T05:54:59.068Z,55.70
2022-08-11T05:57:49.420Z,55.60
2022-08-11T06:00:20.033Z,58.30
2022-08-11T06:02:51.152Z,59.50
2022-08-11T06:05:19.412Z,57.90
2022-08-11T06:07:48.801Z,55.00
2022-08-11T06:10:30.591Z,52.30
2022-08-11T06:13:00.952Z,52.50
2022-08-11T06:15:28.830Z,50.60
2022-08-11T06:17:57.496Z,49.00
2022-08-11T06:20:25.513Z,43.80
2022-08-11T06:23:03.516Z,42.80
2022-08-11T06:25:35.618Z,39.50
2022-08-11T06:28:06.349Z,36.80
2022-08-11T06:30:45.102Z,35.00
2022-08-11T06:33:12.998Z,37.70
2022-08-11T06:36:00.073Z,34.40
2022-08-11T06:38:39.011Z,34.30
2022-08-11T06:41:30.326Z,34.60
2022-08-11T06:44:13.146Z,33.30
2022-08-11T06:46:47.577Z,32.50
2022-08-11T06:49:37.391Z,32.20
2022-08-11T06:52:45.083Z,31.20
2022-08-11T06:55:06.457Z,31.70
2022-08-11T06:57:57.862Z,31.70
2022-08-11T07:00:29.256Z,32.50
2022-08-11T07:03:03.938Z,31.40
2022-08-11T07:05:51.989Z,29.20
2022-08-11T07:09:18.843Z,29.90
2022-08-11T07:12:25.090Z,28.00
2022-08-11T07:15:12.457Z,26.90
2022-08-11T07:18:13.052Z,25.70
2022-08-11T07:21:02.118Z,24.60
2022-08-11T07:23:50.579Z,25.50
2022-08-11T07:26:38.466Z,23.50
2022-08-11T07:29:07.746Z,23.70
2022-08-11T07:31:45.216Z,23.30
2022-08-11T07:34:20.787Z,22.90
2022-08-11T07:36:54.203Z,21.60
2022-08-11T07:39:34.158Z,20.40
2022-08-11T07:42:10.051Z,19.10
2022-08-11T07:45:00.024Z,20.50
2022-08-11T07:47:46.882Z,19.50
2022-08-11T07:50:32.879Z,18.00
2022-08-11T07:53:01.268Z,15.80
2022-08-11T07:55:50.161Z,16.10
2022-08-11T07:58:45.613Z,17.60
2022-08-11T08:01:48.053Z,15.00
2022-08-11T08:04:44.185Z,14.60
2022-08-11T08:07:32.583Z,12.90
2022-08-11T08:10:19.697Z,13.80
2022-08-11T08:13:05.056Z,14.40
2022-08-11T08:15:50.475Z,13.30
2022-08-11T08:18:26.472Z,11.90
2022-08-11T08:20:56.635Z,10.90
2022-08-11T08:23:33.722Z,11.10
2022-08-11T08:26:04.546Z,11.10
2022-08-11T08:28:32.902Z,11.20
2022-08-11T08:31:00.594Z,10.40
2022-08-11T08:33:29.661Z,10.80
2022-08-11T08:36:13.049Z,9.90
2022-08-11T08:38:48.313Z,11.30
2022-08-11T08:41:20.032Z,10.80
2022-08-11T08:43:50.750Z,11.00
2022-08-11T08:46:22.057Z,10.10
2022-08-11T08:48:50.335Z,9.00
2022-08-11T08:52:01.462Z,8.30
2022-08-11T08:54:25.375Z,9.30
2022-08-11T08:56:56.247Z,9.00
2022-08-11T08:59:26.302Z,9.10
2022-08-11T09:02:02.507Z,10.20
2022-08-11T09:04:30.907Z,9.10
2022-08-11T09:07:00.502Z,9.30
2022-08-11T09:09:31.894Z,8.10
2022-08-11T09:11:59.090Z,9.00
2022-08-11T09:14:56.790Z,7.90
2022-08-11T09:17:24.703Z,7.20
2022-08-11T09:20:00.216Z,8.20
2022-08-11T09:23:14.459Z,8.20
2022-08-11T09:25:56.679Z,7.30
2022-08-11T09:28:24.351Z,7.70
2022-08-11T09:30:55.822Z,7.40
2022-08-11T09:33:24.426Z,7.60
2022-08-11T09:35:53.198Z,6.70
2022-08-11T09:38:47.355Z,6.60
2022-08-11T09:41:17.156Z,4.20
2022-08-11T09:44:04.732Z,6.50
2022-08-11T09:46:33.084Z,6.90
2022-08-11T09:49:02.041Z,5.60
2022-08-11T09:51:31.930Z,4.90
2022-08-11T09:54:04.044Z,4.00
2022-08-11T09:56:50.490Z,3.60
2022-08-11T09:59:20.553Z,4.40
2022-08-11T10:01:50.638Z,5.50
2022-08-11T10:04:22.569Z,4.00
2022-08-11T10:07:05.332Z,4.30
2022-08-11T10:09:51.411Z,3.20
2022-08-11T10:12:48.660Z,3.80
2022-08-11T10:15:34.152Z,3.20
2022-08-11T10:18:41.128Z,3.10
2022-08-11T10:21:14.363Z,4.30
2022-08-11T10:27:27.280Z,2.70
2022-08-11T10:30:26.674Z,4.20
2022-08-11T10:33:36.975Z,4.20
2022-08-11T10:36:01.892Z,2.00
2022-08-11T10:38:30.122Z,2.80
2022-08-11T10:41:16.058Z,2.90
2022-08-11T10:44:02.192Z,3.10
2022-08-11T10:46:50.121Z,2.30
2022-08-11T10:49:18.754Z,3.30
2022-08-11T10:52:05.567Z,3.60
2022-08-11T10:54:52.743Z,3.80
2022-08-11T10:57:38.546Z,3.40
2022-08-11T11:00:06.977Z,4.30
2022-08-11T11:02:34.831Z,3.80
2022-08-11T11:05:15.362Z,4.20
2022-08-11T11:07:52.951Z,3.80
2022-08-11T11:10:21.429Z,3.10
2022-08-11T11:13:13.174Z,3.60
2022-08-11T11:16:03.225Z,2.40
2022-08-11T11:18:36.558Z,3.10
2022-08-11T11:21:07.441Z,3.60
2022-08-11T11:23:40.316Z,3.80
2022-08-11T11:26:10.892Z,4.10
2022-08-11T11:29:11.861Z,5.10
2022-08-11T11:32:04.110Z,3.80
2022-08-11T11:34:37.855Z,3.70
2022-08-11T11:37:20.235Z,3.00
2022-08-11T11:39:47.406Z,3.80
2022-08-11T11:42:16.449Z,3.60
2022-08-11T11:44:45.398Z,3.10
2022-08-11T11:47:12.647Z,3.70
2022-08-11T11:49:43.799Z,3.10
2022-08-11T11:52:19.825Z,3.50
2022-08-11T11:54:50.152Z,4.40
2022-08-11T11:57:36.950Z,4.60
2022-08-11T12:00:33.189Z,3.60
2022-08-11T12:03:03.226Z,5.20
2022-08-11T12:05:33.521Z,4.40
2022-08-11T12:08:15.180Z,4.30
2022-08-11T12:11:15.545Z,4.40
2022-08-11T12:13:45.495Z,4.40
2022-08-11T12:16:32.825Z,4.30
2022-08-11T12:19:01.968Z,2.70
2022-08-11T12:21:29.958Z,3.30
2022-08-11T12:24:18.134Z,4.40
2022-08-11T12:27:14.989Z,4.70
2022-08-11T12:29:35.237Z,3.90
2022-08-11T12:32:07.259Z,4.10
2022-08-11T12:34:34.111Z,2.90
2022-08-11T12:37:05.591Z,3.60
2022-08-11T12:40:16.480Z,3.00
2022-08-11T12:43:04.051Z,3.00
2022-08-11T12:45:38.274Z,3.20
2022-08-11T12:48:59.589Z,2.70
2022-08-11T12:52:00.922Z,4.00
2022-08-11T12:54:31.715Z,2.80
2022-08-11T12:57:45.814Z,2.60
2022-08-11T13:00:31.580Z,2.10
2022-08-11T13:03:17.788Z,3.60
2022-08-11T13:05:47.371Z,4.70
2022-08-11T13:08:15.614Z,1.70
2022-08-11T13:11:02.683Z,3.10
2022-08-11T13:13:52.282Z,3.50
2022-08-11T13:16:18.521Z,2.00
2022-08-11T13:18:45.543Z,2.90
2022-08-11T13:21:20.636Z,1.90
2022-08-11T13:23:59.955Z,2.80
2022-08-11T13:26:47.579Z,2.00
2022-08-11T13:29:25.274Z,1.80
2022-08-11T13:31:54.215Z,2.70
2022-08-11T13:34:22.859Z,2.90
2022-08-11T13:36:52.067Z,1.10
2022-08-11T13:39:21.165Z,1.60
2022-08-11T13:41:51.424Z,1.10
2022-08-11T13:44:24.698Z,1.10
2022-08-11T13:46:56.276Z,2.60
2022-08-11T13:49:24.258Z,2.40
2022-08-11T13:51:51.808Z,1.70
2022-08-11T13:54:22.837Z,1.00
2022-08-11T13:56:53.529Z,1.80
2022-08-11T13:59:24.144Z,3.60
2022-08-11T14:02:22.290Z,2.10
2022-08-11T14:04:57.879Z,1.10
2022-08-11T14:07:34.644Z,1.40
2022-08-11T14:10:02.504Z,1.70
2022-08-11T14:12:54.319Z,1.00
2022-08-11T14:15:41.892Z,1.00
2022-08-11T14:18:17.565Z,1.10
2022-08-11T14:21:05.163Z,2.00
2022-08-11T14:23:45.562Z,2.00
2022-08-11T14:26:23.538Z,1.00
2022-08-11T14:28:55.111Z,1.20
2022-08-11T14:31:25.366Z,1.00
2022-08-11T14:33:59.887Z,1.80
2022-08-11T14:36:37.898Z,1.20
2022-08-11T14:39:09.027Z,1.00
2022-08-11T14:42:10.512Z,1.00
2022-08-11T14:45:14.522Z,1.00
2022-08-11T14:47:43.919Z,1.00
2022-08-11T14:50:25.374Z,1.00
2022-08-11T14:52:58.230Z,1.50
2022-08-11T14:55:46.625Z,1.00
2022-08-11T14:58:21.755Z,1.00
2022-08-11T15:00:55.562Z,1.00
2022-08-11T15:03:28.180Z,1.00
2022-08-11T15:06:02.082Z,1.00
2022-08-11T15:08:49.740Z,1.00
2022-08-11T15:11:39.125Z,1.70
2022-08-11T15:14:08.062Z,1.00
2022-08-11T15:16:56.041Z,1.00
2022-08-11T15:19:24.077Z,1.00
2022-08-11T15:22:09.690Z,1.00
2022-08-11T15:24:37.357Z,1.00
2022-08-11T15:27:32.640Z,1.00
2022-08-11T15:30:33.780Z,1.00
2022-08-11T15:33:30.148Z,1.00
2022-08-11T15:36:16.429Z,1.00
2022-08-11T15:38:55.498Z,1.70
2022-08-11T15:41:46.472Z,1.00
2022-08-11T15:45:01.629Z,1.30
2022-08-11T15:47:33.618Z,1.00
2022-08-11T15:50:10.759Z,1.00
2022-08-11T15:52:47.699Z,1.00
2022-08-11T15:55:15.985Z,1.70
2022-08-11T15:58:03.175Z,1.00
2022-08-11T16:00:48.900Z,1.00
2022-08-11T16:04:05.797Z,1.00
2022-08-11T16:06:33.646Z,1.00
2022-08-11T16:09:05.873Z,1.00
2022-08-11T16:11:39.575Z,1.00
2022-08-11T16:14:27.816Z,1.00
2022-08-11T16:16:55.156Z,2.00
2022-08-11T16:19:24.827Z,1.10
2022-08-11T16:21:53.235Z,2.10
2022-08-11T16:27:01.507Z,1.80
2022-08-11T16:27:14.351Z,2.30
2022-08-11T16:29:45.635Z,1.80
2022-08-11T16:32:20.697Z,1.70
2022-08-11T16:35:17.011Z,2.40
2022-08-11T16:38:03.861Z,1.60
2022-08-11T16:40:32.359Z,1.60
2022-08-11T16:43:18.418Z,3.10
2022-08-11T16:46:18.969Z,1.10
2022-08-11T16:48:49.179Z,1.30
2022-08-11T16:51:16.338Z,2.30
2022-08-11T16:53:46.020Z,2.50
2022-08-11T16:56:34.465Z,2.50
2022-08-11T16:59:14.746Z,2.20
2022-08-11T17:01:53.038Z,1.70
2022-08-11T17:05:09.475Z,2.00
2022-08-11T17:07:57.933Z,2.40
2022-08-11T17:10:55.628Z,2.20
2022-08-11T17:13:33.697Z,2.80
2022-08-11T17:16:13.026Z,2.70
2022-08-11T17:19:00.987Z,2.40
2022-08-11T17:21:31.257Z,4.00
2022-08-11T17:24:09.053Z,3.00
2022-08-11T17:26:57.586Z,2.80
2022-08-11T17:29:53.633Z,3.70
2022-08-11T17:33:03.946Z,4.50
2022-08-11T17:35:38.807Z,2.90
2022-08-11T17:38:09.667Z,3.30
2022-08-11T17:41:02.807Z,3.70
2022-08-11T17:43:49.300Z,3.70
2022-08-11T17:46:35.943Z,3.90
2022-08-11T17:49:05.872Z,4.70
2022-08-11T17:51:51.196Z,4.70
2022-08-11T17:54:37.338Z,4.50
2022-08-11T17:57:28.890Z,4.90
2022-08-11T17:59:57.652Z,4.80
2022-08-11T18:02:45.675Z,4.20
2022-08-11T18:05:15.819Z,4.20
2022-08-11T18:08:02.907Z,4.20
2022-08-11T18:10:51.490Z,4.40
2022-08-11T18:13:39.563Z,4.30
2022-08-11T18:16:25.966Z,5.00
2022-08-11T18:19:12.020Z,4.80
2022-08-11T18:22:14.362Z,5.10
2022-08-11T18:25:06.419Z,5.00
2022-08-11T18:27:54.274Z,5.30
2022-08-11T18:30:40.250Z,5.70
2022-08-11T18:36:41.042Z,5.90
2022-08-11T18:39:30.624Z,5.80
2022-08-11T18:42:28.844Z,6.30
2022-08-11T18:45:18.729Z,6.70
2022-08-11T18:48:07.502Z,7.10
2022-08-11T18:51:29.645Z,7.30
2022-08-11T18:54:04.983Z,7.90
2022-08-11T18:56:51.126Z,8.30
2022-08-11T18:59:38.783Z,9.00
2022-08-11T19:02:25.738Z,9.20
2022-08-11T19:05:14.334Z,9.60
2022-08-11T19:08:01.684Z,10.50
2022-08-11T19:10:47.145Z,11.20
2022-08-11T19:13:33.174Z,11.40
2022-08-11T19:16:20.049Z,12.00
2022-08-11T19:19:07.333Z,12.50
2022-08-11T19:21:53.759Z,14.00
2022-08-11T19:24:39.388Z,13.40
2022-08-11T19:27:27.772Z,13.90
2022-08-11T19:30:14.664Z,14.40
2022-08-11T19:33:00.750Z,16.20
2022-08-11T19:35:47.068Z,15.20
2022-08-11T19:38:33.068Z,15.90
2022-08-11T19:41:56.302Z,15.80
2022-08-11T19:44:25.471Z,16.20
2022-08-11T19:47:11.139Z,17.80
2022-08-11T19:49:58.266Z,17.40
2022-08-11T19:52:44.819Z,18.10
2022-08-11T19:55:30.981Z,18.40
2022-08-11T19:58:16.295Z,18.70
2022-08-11T20:01:02.417Z,19.30
2022-08-11T20:03:47.778Z,19.70
2022-08-11T20:06:36.317Z,20.00
2022-08-11T20:09:24.284Z,20.50
2022-08-11T20:12:14.297Z,21.10
2022-08-11T20:15:02.339Z,21.60
2022-08-11T20:17:51.845Z,21.80
2022-08-11T20:20:40.233Z,21.80
2022-08-11T20:23:28.708Z,22.30
2022-08-11T20:26:31.909Z,22.20
2022-08-11T20:29:18.752Z,22.40
2022-08-11T20:32:06.399Z,22.50
2022-08-11T20:34:56.393Z,22.70
2022-08-11T20:37:45.057Z,23.10
2022-08-11T20:40:35.113Z,23.40
2022-08-11T20:44:07.591Z,23.80
2022-08-11T20:46:27.473Z,23.70
2022-08-11T20:49:15.419Z,23.50
2022-08-11T20:52:06.153Z,23.80
2022-08-11T20:54:53.101Z,24.20
2022-08-11T20:57:58.723Z,24.00
2022-08-11T21:00:44.625Z,24.20
2022-08-11T21:03:36.309Z,24.30
2022-08-11T21:06:33.037Z,24.60
2022-08-11T21:09:23.930Z,25.40
2022-08-11T21:12:29.454Z,25.90
2022-08-11T21:15:16.010Z,25.60
2022-08-11T21:18:28.563Z,25.90
2022-08-11T21:21:18.132Z,26.40
2022-08-11T21:24:05.555Z,26.70
2022-08-11T21:26:53.573Z,27.50
2022-08-11T21:29:40.023Z,28.10
2022-08-11T21:32:25.344Z,28.60
2022-08-11T21:35:12.412Z,29.10
2022-08-11T21:37:57.935Z,29.80
2022-08-11T21:40:44.826Z,30.10
2022-08-11T21:43:32.406Z,30.30
2022-08-11T21:46:18.849Z,30.20
2022-08-11T21:49:04.897Z,30.20
2022-08-11T21:51:50.221Z,30.50
2022-08-11T21:54:36.135Z,30.80
2022-08-11T21:57:22.076Z,30.50
2022-08-11T22:00:11.183Z,31.40
2022-08-11T22:02:58.108Z,31.90
2022-08-11T22:05:45.494Z,33.00
2022-08-11T22:08:32.126Z,33.60
2022-08-11T22:11:31.539Z,35.00
2022-08-11T22:14:19.428Z,35.10
2022-08-11T22:17:04.691Z,35.70
2022-08-11T22:19:52.221Z,35.60
2022-08-11T22:22:49.124Z,35.90
2022-08-11T22:25:38.903Z,36.80
2022-08-11T22:28:24.235Z,37.50
2022-08-11T22:31:09.901Z,38.00
2022-08-11T22:34:02.235Z,38.90
2022-08-11T22:36:49.459Z,39.20
2022-08-11T22:39:36.081Z,39.70
2022-08-11T22:42:32.949Z,40.90
2022-08-11T22:45:19.817Z,40.90
2022-08-11T22:48:07.693Z,41.50
2022-08-11T22:50:57.167Z,42.10
2022-08-11T22:53:55.236Z,42.50
2022-08-11T22:56:43.331Z,42.70
2022-08-11T22:59:28.727Z,42.90
2022-08-11T23:02:14.185Z,43.20
2022-08-11T23:04:59.590Z,43.60
2022-08-11T23:07:51.206Z,44.40
2022-08-11T23:10:38.626Z,45.00
2022-08-11T23:13:25.390Z,46.00
2022-08-11T23:16:12.840Z,46.80
2022-08-11T23:18:59.279Z,47.00
2022-08-11T23:21:46.569Z,46.40
2022-08-11T23:24:32.451Z,46.20
2022-08-11T23:27:19.332Z,47.30
2022-08-11T23:30:06.758Z,47.00
2022-08-11T23:32:52.271Z,47.40
2022-08-11T23:35:53.554Z,48.40
2022-08-11T23:38:43.494Z,48.30
2022-08-11T23:41:31.636Z,48.40
2022-08-11T23:44:19.089Z,48.50
2022-08-11T23:47:06.705Z,48.60
2022-08-11T23:49:54.870Z,49.20
2022-08-11T23:52:41.047Z,49.90
2022-08-11T23:55:27.248Z,50.00
2022-08-11T23:58:12.855Z,50.20
